Time;durP1;ratioP1;P1;durP2;ratioP2;P2;SDS_P1;SDS_P2;PMS_P1;PMS_P2;Temp;Humidity;BMP_temperature;BMP_pressure;BME280_temperature;BME280_humidity;BME280_pressure;Samples;Min_cycle;Max_cycle;Signal;HPM_P1;HPM_P2
2022/10/03 00:02:32;;;;;;;;;;;;;;;6.69;62.26;96317.09;5047163;28;20481;-72
2022/10/03 00:05:16;;;;;;;;;;;;;;;6.11;64.44;96331.75;5029439;28;20024;-72
2022/10/03 00:07:48;;;;;;;;;;;;;;;6.25;63.97;96326.13;5049912;28;19991;-72
2022/10/03 00:10:34;;;;;;;;;;;;;;;6.12;64.07;96325.47;5056698;28;19968;-72
2022/10/03 00:13:00;;;;;;;;;;;;;;;6.42;63.19;96317.69;5035901;28;20020;-72
2022/10/03 00:15:40;;;;;;;;;;;;;;;6.18;63.98;96324.97;5054674;28;19969;-72
2022/10/03 00:18:18;;;;;;;;;;;;;;;6.52;62.93;96321.22;5053003;28;20075;-72
2022/10/03 00:21:01;;;;;;;;;;;;;;;6.25;63.29;96325.25;5029914;28;20015;-72
2022/10/03 00:23:45;;;;;;;;;;;;;;;6.10;63.46;96328.28;5051927;28;20059;-72
2022/10/03 00:26:26;;;;;;;;;;;;;;;5.81;64.34;96331.59;5047926;28;19966;-72
2022/10/03 00:28:57;;;;;;;;;;;;;;;5.72;65.10;96330.56;5055815;28;20442;-72
2022/10/03 00:31:23;;;;;;;;;;;;;;;5.61;65.13;96320.06;5047739;28;20068;-72
2022/10/03 00:33:49;;;;;;;;;;;;;;;5.11;66.65;96329.44;5028396;28;20461;-72
2022/10/03 00:36:21;;;;;;;;;;;;;;;5.19;66.34;96328.81;5050107;28;19988;-72
2022/10/03 00:38:46;;;;;;;;;;;;;;;5.02;66.90;96332.78;5049103;28;20397;-72
2022/10/03 00:41:11;;;;;;;;;;;;;;;5.00;66.71;96338.19;5046988;28;19993;-72
2022/10/03 00:43:42;;;;;;;;;;;;;;;5.02;67.13;96335.44;5050422;28;19996;-72
2022/10/03 00:46:14;;;;;;;;;;;;;;;5.15;66.64;96341.44;5052992;28;20074;-72
2022/10/03 00:48:39;;;;;;;;;;;;;;;5.34;65.59;96337.28;5048401;28;19992;-73
2022/10/03 00:51:25;;;;;;;;;;;;;;;5.29;65.14;96342.09;5044667;28;19969;-72
2022/10/03 00:54:10;;;;;;;;;;;;;;;5.35;65.04;96350.34;5049892;28;19968;-72
2022/10/03 00:56:35;;;;;;;;;;;;;;;5.10;65.65;96354.16;5048489;28;20240;-73
2022/10/03 00:59:14;;;;;;;;;;;;;;;4.92;66.96;96357.31;5053164;28;20060;-72
2022/10/03 01:01:43;;;;;;;;;;;;;;;5.03;66.21;96355.59;5035095;28;19968;-72
2022/10/03 01:04:11;;;;;;;;;;;;;;;4.95;66.53;96354.41;5052831;28;20450;-73
2022/10/03 01:06:37;;;;;;;;;;;;;;;4.57;68.11;96353.06;5050649;28;20322;-72
2022/10/03 01:09:11;;;;;;;;;;;;;;;4.65;68.19;96355.91;5055910;28;20331;-72
2022/10/03 01:11:39;;;;;;;;;;;;;;;4.86;67.49;96352.50;5030563;28;19984;-73
2022/10/03 01:14:08;;;;;;;;;;;;;;;4.90;67.17;96351.28;5055158;28;20031;-73
2022/10/03 01:16:38;;;;;;;;;;;;;;;4.69;68.10;96353.84;5050538;28;20461;-73
2022/10/03 01:19:06;;;;;;;;;;;;;;;4.79;68.01;96346.03;5032375;28;20047;-71
2022/10/03 01:21:51;;;;;;;;;;;;;;;4.97;67.50;96346.38;5047202;28;19993;-72
2022/10/03 01:24:16;;;;;;;;;;;;;;;4.97;67.43;96357.75;5017729;28;20002;-72
2022/10/03 01:26:47;;;;;;;;;;;;;;;4.89;67.73;96356.69;5057873;28;19961;-73
2022/10/03 01:32:02;;;;;;;;;;;;;;;4.98;67.64;96355.97;5050613;28;20039;-72
2022/10/03 01:34:51;;;;;;;;;;;;;;;5.12;67.23;96352.22;5048425;28;19969;-72
2022/10/03 01:37:23;;;;;;;;;;;;;;;5.43;66.27;96352.34;5015760;28;19989;-72
2022/10/03 01:39:49;;;;;;;;;;;;;;;5.35;66.34;96349.50;5029044;28;19989;-73
2022/10/03 01:42:35;;;;;;;;;;;;;;;5.27;66.79;96351.94;5059619;28;19980;-73
2022/10/03 01:45:20;;;;;;;;;;;;;;;5.31;66.85;96354.19;5034664;28;20561;-72
2022/10/03 01:47:50;;;;;;;;;;;;;;;5.56;66.37;96354.81;5048454;28;19988;-73
2022/10/03 01:50:22;;;;;;;;;;;;;;;5.58;66.34;96357.31;5030833;28;20456;-73
2022/10/03 01:52:51;;;;;;;;;;;;;;;5.63;66.04;96363.06;5047185;28;20003;-72
2022/10/03 01:55:22;;;;;;;;;;;;;;;5.56;66.42;96365.38;5030173;28;20030;-73
2022/10/03 01:57:49;;;;;;;;;;;;;;;5.32;67.29;96365.59;5034507;28;20161;-73
2022/10/03 02:00:19;;;;;;;;;;;;;;;5.64;66.23;96367.38;5034433;28;20050;-73
2022/10/03 02:02:44;;;;;;;;;;;;;;;5.67;66.15;96367.13;5061225;28;19972;-72
2022/10/03 02:05:21;;;;;;;;;;;;;;;5.51;66.50;96370.19;5052616;28;20001;-72
2022/10/03 02:07:59;;;;;;;;;;;;;;;5.64;66.76;96374.47;5026637;28;20006;-73
2022/10/03 02:10:34;;;;;;;;;;;;;;;5.81;65.75;96365.09;5038581;28;20305;-73
2022/10/03 02:13:13;;;;;;;;;;;;;;;6.08;64.89;96367.22;5036031;28;20300;-73
2022/10/03 02:16:02;;;;;;;;;;;;;;;6.17;64.63;96370.03;5040774;28;19989;-73
2022/10/03 02:18:33;;;;;;;;;;;;;;;6.17;64.62;96375.34;5041148;28;20001;-73
2022/10/03 02:20:58;;;;;;;;;;;;;;;6.25;64.75;96378.16;5049773;28;20001;-71
2022/10/03 02:23:32;;;;;;;;;;;;;;;5.93;65.41;96373.81;5051279;28;19995;-70
2022/10/03 02:26:16;;;;;;;;;;;;;;;5.86;65.71;96374.31;5050696;28;20064;-70
2022/10/03 02:28:58;;;;;;;;;;;;;;;5.79;66.12;96377.63;5049141;28;19996;-71
2022/10/03 02:31:31;;;;;;;;;;;;;;;6.05;65.26;96374.59;5052690;28;19993;-71
2022/10/03 02:34:14;;;;;;;;;;;;;;;6.01;65.48;96371.34;5053088;28;19969;-71
2022/10/03 02:36:47;;;;;;;;;;;;;;;5.98;65.54;96377.75;5051589;28;20258;-71
2022/10/03 02:39:31;;;;;;;;;;;;;;;5.97;65.36;96385.81;5032615;28;20008;-71
2022/10/03 02:42:15;;;;;;;;;;;;;;;6.00;64.96;96382.91;5053044;28;20003;-71
2022/10/03 02:44:59;;;;;;;;;;;;;;;6.35;64.06;96394.06;5056460;28;20002;-71
2022/10/03 02:47:27;;;;;;;;;;;;;;;6.44;63.66;96390.66;5049870;28;19996;-70
2022/10/03 02:50:15;;;;;;;;;;;;;;;6.22;64.13;96391.63;5049503;28;19996;-70
2022/10/03 02:52:58;;;;;;;;;;;;;;;6.15;64.40;96385.22;5037447;28;20320;-70
2022/10/03 02:55:41;;;;;;;;;;;;;;;6.41;63.56;96388.25;5050081;28;20043;-71
2022/10/03 02:58:18;;;;;;;;;;;;;;;6.27;64.04;96392.09;5049253;28;20645;-71
2022/10/03 03:01:12;;;;;;;;;;;;;;;6.45;63.29;96394.97;5058181;28;20086;-70
2022/10/03 03:04:07;;;;;;;;;;;;;;;6.57;62.92;96394.91;5030370;28;20038;-71
2022/10/03 03:06:40;;;;;;;;;;;;;;;6.60;62.76;96390.16;5036891;28;20353;-71
2022/10/03 03:09:08;;;;;;;;;;;;;;;7.03;61.70;96400.59;5034179;28;20095;-71
2022/10/03 03:11:37;;;;;;;;;;;;;;;7.13;60.98;96403.25;5032529;28;19993;-71
2022/10/03 03:14:20;;;;;;;;;;;;;;;7.13;61.30;96392.66;5049942;28;20083;-70
2022/10/03 03:17:05;;;;;;;;;;;;;;;7.05;61.63;96395.16;5053620;28;19997;-70
2022/10/03 03:19:36;;;;;;;;;;;;;;;7.49;60.77;96398.28;5058010;28;19993;-71
2022/10/03 03:22:04;;;;;;;;;;;;;;;7.38;60.07;96409.03;5051340;28;19965;-71
2022/10/03 03:24:33;;;;;;;;;;;;;;;7.18;60.99;96405.50;5053896;28;20001;-70
2022/10/03 03:27:01;;;;;;;;;;;;;;;7.50;60.06;96392.00;5039296;28;19988;-71
2022/10/03 03:29:45;;;;;;;;;;;;;;;7.54;60.30;96404.00;5039006;28;20041;-71
2022/10/03 03:32:17;;;;;;;;;;;;;;;7.94;59.26;96401.34;5052930;28;19993;-71
2022/10/03 03:35:02;;;;;;;;;;;;;;;7.45;59.99;96404.00;5053343;28;20020;-71
2022/10/03 03:37:33;;;;;;;;;;;;;;;7.05;61.18;96417.19;5034097;28;20054;-71
2022/10/03 03:40:01;;;;;;;;;;;;;;;7.06;61.71;96423.31;5051000;28;19988;-72
2022/10/03 03:42:36;;;;;;;;;;;;;;;6.91;62.03;96421.06;5047118;28;19969;-72
2022/10/03 03:45:14;;;;;;;;;;;;;;;6.63;62.39;96411.06;5054283;28;19993;-71
2022/10/03 03:47:53;;;;;;;;;;;;;;;6.44;63.58;96411.81;5052680;28;20039;-71
2022/10/03 03:50:36;;;;;;;;;;;;;;;6.46;63.79;96423.06;5048167;28;20004;-70
2022/10/03 03:53:04;;;;;;;;;;;;;;;6.38;63.63;96421.09;5059550;28;19996;-70
2022/10/03 03:55:55;;;;;;;;;;;;;;;6.57;63.72;96426.66;5047125;28;20055;-71
2022/10/03 03:58:32;;;;;;;;;;;;;;;6.51;63.74;96425.38;5024877;28;19969;-71
2022/10/03 04:01:15;;;;;;;;;;;;;;;6.15;64.83;96431.00;5052727;28;19988;-71
2022/10/03 04:03:47;;;;;;;;;;;;;;;5.94;65.31;96429.19;5049718;28;19985;-70
2022/10/03 04:06:17;;;;;;;;;;;;;;;5.52;66.76;96430.00;5048266;28;19980;-70
2022/10/03 04:09:00;;;;;;;;;;;;;;;4.92;69.01;96433.84;5048158;28;20342;-71
2022/10/03 04:11:26;;;;;;;;;;;;;;;5.00;69.05;96437.66;5050136;28;20921;-70
2022/10/03 04:13:54;;;;;;;;;;;;;;;4.82;69.49;96439.00;5054586;28;19960;-70
2022/10/03 04:18:56;;;;;;;;;;;;;;;5.02;69.31;96430.44;5051659;28;20007;-70
2022/10/03 04:19:28;;;;;;;;;;;;;;;4.96;69.49;96434.41;5049548;28;19989;-70
2022/10/03 04:21:56;;;;;;;;;;;;;;;5.04;69.08;96428.53;5052523;28;19977;-71
2022/10/03 04:24:45;;;;;;;;;;;;;;;5.06;69.02;96424.00;5049741;28;20337;-70
2022/10/03 04:27:15;;;;;;;;;;;;;;;4.93;69.57;96424.94;5036512;28;20046;-70
2022/10/03 04:29:46;;;;;;;;;;;;;;;4.91;69.50;96423.41;5051479;28;20413;-71
2022/10/03 04:32:18;;;;;;;;;;;;;;;4.77;70.17;96422.72;5054018;28;19997;-70
2022/10/03 04:34:48;;;;;;;;;;;;;;;4.86;69.57;96425.56;5053297;28;19975;-71
2022/10/03 04:37:19;;;;;;;;;;;;;;;4.76;70.00;96422.81;5056587;28;19989;-71
2022/10/03 04:40:10;;;;;;;;;;;;;;;4.82;69.41;96423.16;5046080;28;19988;-71
2022/10/03 04:42:50;;;;;;;;;;;;;;;4.82;69.39;96423.16;5026317;28;20030;-70
2022/10/03 04:45:16;;;;;;;;;;;;;;;4.75;70.03;96429.03;5028857;28;20062;-70
2022/10/03 04:47:42;;;;;;;;;;;;;;;4.82;69.55;96423.16;5048941;28;20439;-71
2022/10/03 04:50:10;;;;;;;;;;;;;;;4.93;69.01;96411.75;5050808;28;19965;-72
2022/10/03 04:52:38;;;;;;;;;;;;;;;4.68;70.04;96415.50;5052336;28;20278;-70
2022/10/03 04:55:22;;;;;;;;;;;;;;;4.60;69.83;96405.56;5049732;28;20031;-70
2022/10/03 04:57:52;;;;;;;;;;;;;;;4.56;69.77;96406.78;5046084;28;20426;-71
2022/10/03 05:00:27;;;;;;;;;;;;;;;4.33;70.57;96407.59;5032723;28;20504;-71
2022/10/03 05:03:10;;;;;;;;;;;;;;;4.64;69.94;96403.50;5030334;28;19991;-71
2022/10/03 05:05:47;;;;;;;;;;;;;;;4.66;69.67;96409.53;5046767;28;20008;-71
2022/10/03 05:08:12;;;;;;;;;;;;;;;4.62;69.75;96413.38;5050421;28;20095;-71
2022/10/03 05:10:37;;;;;;;;;;;;;;;4.37;71.16;96415.25;5060380;28;20281;-71
2022/10/03 05:13:10;;;;;;;;;;;;;;;4.88;69.20;96411.28;5050544;28;19995;-71
2022/10/03 05:16:01;;;;;;;;;;;;;;;4.95;68.97;96412.47;5029122;28;20069;-70
2022/10/03 05:18:49;;;;;;;;;;;;;;;5.04;68.49;96425.91;5036363;28;20436;-70
2022/10/03 05:21:33;;;;;;;;;;;;;;;4.99;68.56;96425.44;5041431;28;20646;-72
2022/10/03 05:24:05;;;;;;;;;;;;;;;5.57;66.89;96421.66;5050021;28;20050;-70
2022/10/03 05:26:33;;;;;;;;;;;;;;;5.59;66.50;96425.03;5049173;28;20058;-71
2022/10/03 05:29:04;;;;;;;;;;;;;;;5.92;65.57;96428.47;5047521;28;19989;-70
2022/10/03 05:31:44;;;;;;;;;;;;;;;6.34;64.32;96430.28;5049827;28;19993;-70
2022/10/03 05:34:22;;;;;;;;;;;;;;;6.42;63.92;96429.59;5051308;28;20325;-70
2022/10/03 05:36:55;;;;;;;;;;;;;;;5.83;65.51;96434.53;5048209;28;20084;-70
2022/10/03 05:39:33;;;;;;;;;;;;;;;5.86;65.27;96426.34;5044473;28;19977;-71
2022/10/03 05:42:22;;;;;;;;;;;;;;;6.03;64.87;96438.16;5028426;28;20044;-71
2022/10/03 05:44:47;;;;;;;;;;;;;;;6.22;64.49;96437.44;5036635;28;20023;-71
2022/10/03 05:47:45;;;;;;;;;;;;;;;6.15;64.63;96435.47;5045572;28;20482;-70
2022/10/03 05:50:10;;;;;;;;;;;;;;;6.44;63.67;96434.75;5035299;28;20068;-71
2022/10/03 05:52:39;;;;;;;;;;;;;;;6.53;63.22;96430.53;5054253;28;20115;-71
2022/10/03 05:55:11;;;;;;;;;;;;;;;6.82;63.09;96440.38;5058244;28;19984;-71
2022/10/03 05:57:52;;;;;;;;;;;;;;;7.15;62.18;96446.34;5044551;28;19993;-71
2022/10/03 06:00:18;;;;;;;;;;;;;;;7.07;62.03;96439.06;5053728;28;19993;-70
2022/10/03 06:02:56;;;;;;;;;;;;;;;7.11;61.81;96452.88;5049805;28;20000;-71
2022/10/03 06:05:24;;;;;;;;;;;;;;;6.87;62.07;96460.19;5049864;28;20221;-71
2022/10/03 06:07:50;;;;;;;;;;;;;;;6.89;62.29;96460.06;5053757;28;20488;-71
2022/10/03 06:10:15;;;;;;;;;;;;;;;6.53;62.92;96460.44;5048749;28;19973;-71
2022/10/03 06:13:15;;;;;;;;;;;;;;;6.79;62.25;96464.47;5051789;28;19996;-71
2022/10/03 06:15:52;;;;;;;;;;;;;;;6.65;62.91;96469.16;4984948;28;20064;-71
2022/10/03 06:18:36;;;;;;;;;;;;;;;7.02;61.73;96468.63;5038730;28;19988;-70
2022/10/03 06:21:05;;;;;;;;;;;;;;;6.98;62.49;96482.25;5049154;28;20476;-71
2022/10/03 06:23:56;;;;;;;;;;;;;;;7.38;61.22;96470.78;5048365;28;19985;-71
2022/10/03 06:26:44;;;;;;;;;;;;;;;7.87;59.43;96469.19;5020233;28;20422;-70
2022/10/03 06:29:12;;;;;;;;;;;;;;;7.35;60.34;96478.16;5035262;28;19988;-70
2022/10/03 06:31:40;;;;;;;;;;;;;;;7.60;60.23;96483.91;5047104;28;20334;-70
2022/10/03 06:34:25;;;;;;;;;;;;;;;7.02;61.38;96484.50;5047156;28;19996;-71
2022/10/03 06:37:09;;;;;;;;;;;;;;;6.61;62.89;96488.91;5029177;28;20019;-70
2022/10/03 06:39:45;;;;;;;;;;;;;;;6.92;61.87;96490.72;5052057;28;19985;-70
2022/10/03 06:42:16;;;;;;;;;;;;;;;6.74;62.94;96494.81;5032888;28;20501;-71
2022/10/03 06:44:49;;;;;;;;;;;;;;;7.01;62.38;96500.53;5044011;28;20001;-71
2022/10/03 06:47:35;;;;;;;;;;;;;;;7.44;61.11;96487.94;5053406;28;20034;-71
2022/10/03 06:50:18;;;;;;;;;;;;;;;7.08;61.81;96495.53;5019013;28;20488;-70
2022/10/03 06:53:02;;;;;;;;;;;;;;;7.38;61.46;96499.91;5049064;28;20000;-71
2022/10/03 06:55:27;;;;;;;;;;;;;;;7.94;60.25;96502.13;5054693;28;20284;-71
2022/10/03 06:58:01;;;;;;;;;;;;;;;8.00;59.24;96504.22;5049026;28;20603;-71
2022/10/03 07:00:56;;;;;;;;;;;;;;;7.35;61.62;96508.13;5060814;28;20019;-70
2022/10/03 07:03:24;;;;;;;;;;;;;;;7.33;61.87;96506.59;4979124;28;20535;-71
2022/10/03 07:05:49;;;;;;;;;;;;;;;6.86;62.76;96507.97;5053296;28;20044;-70
2022/10/03 07:08:35;;;;;;;;;;;;;;;7.48;61.59;96507.88;5047816;28;20031;-71
2022/10/03 07:11:09;;;;;;;;;;;;;;;7.24;61.81;96506.44;5052935;28;19961;-71
2022/10/03 07:13:48;;;;;;;;;;;;;;;7.09;62.10;96513.06;5053469;28;20391;-71
2022/10/03 07:16:31;;;;;;;;;;;;;;;7.48;61.33;96515.00;5054994;28;20043;-71
2022/10/03 07:19:02;;;;;;;;;;;;;;;7.85;60.75;96517.03;5060391;28;20446;-70
2022/10/03 07:21:46;;;;;;;;;;;;;;;7.69;60.95;96519.38;5048545;28;20058;-71
2022/10/03 07:24:30;;;;;;;;;;;;;;;7.82;60.82;96514.66;5055126;28;20127;-71
2022/10/03 07:26:55;;;;;;;;;;;;;;;7.97;59.85;96517.75;5050315;28;20358;-71
2022/10/03 07:29:40;;;;;;;;;;;;;;;7.83;60.63;96516.34;5055148;28;20000;-71
2022/10/03 07:32:10;;;;;;;;;;;;;;;7.87;58.62;96511.59;5051538;28;19993;-71
2022/10/03 07:34:47;;;;;;;;;;;;;;;8.25;58.46;96512.56;5049758;28;20059;-71
2022/10/03 07:40:07;;;;;;;;;;;;;;;7.94;60.56;96531.28;5051204;28;20038;-71
2022/10/03 07:42:47;;;;;;;;;;;;;;;8.37;59.44;96528.34;5048962;28;20403;-71
2022/10/03 07:45:12;;;;;;;;;;;;;;;9.05;57.47;96531.84;5052817;28;20497;-71
2022/10/03 07:47:41;;;;;;;;;;;;;;;8.69;57.68;96537.78;5057719;28;19988;-71
2022/10/03 07:50:24;;;;;;;;;;;;;;;8.81;58.44;96546.41;5055194;28;19976;-70
2022/10/03 07:52:52;;;;;;;;;;;;;;;8.88;57.68;96546.69;5048856;28;20058;-70
2022/10/03 07:55:26;;;;;;;;;;;;;;;8.77;57.82;96545.03;5053902;28;19972;-71
2022/10/03 07:58:08;;;;;;;;;;;;;;;9.16;56.69;96549.41;5054994;28;20039;-71
2022/10/03 08:00:33;;;;;;;;;;;;;;;8.98;57.03;96550.19;5037105;28;19984;-71
2022/10/03 08:03:19;;;;;;;;;;;;;;;9.24;56.18;96552.16;5050498;28;19987;-71
2022/10/03 08:06:05;;;;;;;;;;;;;;;9.22;55.81;96547.97;5056966;28;19997;-71
2022/10/03 08:08:52;;;;;;;;;;;;;;;8.80;57.09;96548.22;5021435;28;20285;-71
2022/10/03 08:11:18;;;;;;;;;;;;;;;8.77;56.67;96542.38;5039701;28;19967;-71
2022/10/03 08:13:48;;;;;;;;;;;;;;;9.24;56.39;96546.03;5049858;28;19965;-71
2022/10/03 08:16:20;;;;;;;;;;;;;;;8.71;57.49;96554.41;5053214;28;20454;-71
2022/10/03 08:18:51;;;;;;;;;;;;;;;9.08;57.38;96556.28;5039935;28;20461;-71
2022/10/03 08:21:19;;;;;;;;;;;;;;;8.61;57.53;96550.94;5053141;28;20001;-71
2022/10/03 08:23:56;;;;;;;;;;;;;;;8.92;57.41;96561.34;5054969;28;20457;-71
2022/10/03 08:26:41;;;;;;;;;;;;;;;8.61;57.57;96558.91;5055006;28;19968;-71
2022/10/03 08:29:15;;;;;;;;;;;;;;;8.69;57.68;96559.00;5056627;28;20061;-70
2022/10/03 08:31:41;;;;;;;;;;;;;;;8.84;57.38;96558.56;5052269;28;20015;-71
2022/10/03 08:34:24;;;;;;;;;;;;;;;8.85;57.10;96557.59;5055917;28;20008;-70
2022/10/03 08:37:09;;;;;;;;;;;;;;;9.31;55.61;96558.56;5060438;28;20085;-71
2022/10/03 08:39:34;;;;;;;;;;;;;;;9.64;55.20;96566.09;5056201;28;19985;-71
2022/10/03 08:42:06;;;;;;;;;;;;;;;9.20;55.18;96558.75;5055554;28;19961;-71
2022/10/03 08:44:36;;;;;;;;;;;;;;;8.84;57.20;96564.69;5034385;28;20111;-71
2022/10/03 08:47:08;;;;;;;;;;;;;;;9.30;54.44;96561.38;5037954;28;19972;-71
2022/10/03 08:49:45;;;;;;;;;;;;;;;9.32;55.89;96565.56;5056013;28;20403;-70
2022/10/03 08:52:19;;;;;;;;;;;;;;;9.37;55.09;96565.13;5033782;28;20020;-71
2022/10/03 08:54:50;;;;;;;;;;;;;;;9.36;54.61;96581.22;5034788;28;19969;-71
2022/10/03 08:57:30;;;;;;;;;;;;;;;9.41;54.10;96563.84;5056465;28;20024;-71
2022/10/03 09:00:02;;;;;;;;;;;;;;;8.81;56.24;96573.78;5054085;28;20066;-71
2022/10/03 09:02:45;;;;;;;;;;;;;;;8.87;56.15;96572.38;5058356;28;20440;-71
2022/10/03 09:05:26;;;;;;;;;;;;;;;9.45;54.49;96575.84;5050641;28;20115;-71
2022/10/03 09:08:13;;;;;;;;;;;;;;;8.84;55.61;96577.16;5054103;28;20460;-70
2022/10/03 09:10:57;;;;;;;;;;;;;;;8.82;55.60;96580.81;5036649;28;19961;-70
2022/10/03 09:13:49;;;;;;;;;;;;;;;9.17;54.61;96578.50;5051954;28;19988;-71
2022/10/03 09:16:29;;;;;;;;;;;;;;;9.65;52.77;96585.56;5048116;28;19992;-71
2022/10/03 09:18:57;;;;;;;;;;;;;;;9.52;54.25;96592.03;5057117;28;20049;-71
2022/10/03 09:21:28;;;;;;;;;;;;;;;9.58;53.48;96590.59;5036319;28;19999;-70
2022/10/03 09:24:12;;;;;;;;;;;;;;;8.76;55.60;96594.63;5054503;28;20046;-70
2022/10/03 09:26:46;;;;;;;;;;;;;;;8.88;56.26;96605.09;5035638;28;19979;-70
2022/10/03 09:29:17;;;;;;;;;;;;;;;9.21;54.85;96597.63;5047428;28;19992;-70
2022/10/03 09:31:55;;;;;;;;;;;;;;;9.17;53.92;96596.22;5047454;28;20410;-70
2022/10/03 09:34:26;;;;;;;;;;;;;;;9.58;53.73;96593.28;5048519;28;20007;-70
2022/10/03 09:37:00;;;;;;;;;;;;;;;8.92;55.76;96603.84;5052210;28;20062;-70
2022/10/03 09:39:38;;;;;;;;;;;;;;;8.66;55.87;96596.47;5051989;28;19984;-70
2022/10/03 09:42:22;;;;;;;;;;;;;;;9.14;55.03;96596.50;5049253;28;19976;-70
2022/10/03 09:44:53;;;;;;;;;;;;;;;9.25;53.83;96600.84;5045491;28;20000;-70
2022/10/03 09:47:27;;;;;;;;;;;;;;;8.90;54.99;96592.50;5046477;28;19969;-70
2022/10/03 09:50:12;;;;;;;;;;;;;;;9.50;53.87;96594.03;5050332;28;19969;-70
2022/10/03 09:52:43;;;;;;;;;;;;;;;9.71;53.32;96590.25;5054187;28;20001;-70
2022/10/03 09:55:26;;;;;;;;;;;;;;;9.56;53.33;96589.94;5055977;28;19980;-70
2022/10/03 09:57:53;;;;;;;;;;;;;;;9.72;52.10;96587.47;5046399;28;20511;-70
2022/10/03 10:00:18;;;;;;;;;;;;;;;10.56;50.42;96581.16;5045772;28;19989;-70
2022/10/03 10:02:59;;;;;;;;;;;;;;;11.31;49.05;96573.66;5047973;28;19969;-70
2022/10/03 10:05:30;;;;;;;;;;;;;;;11.61;46.78;96576.78;5055016;28;20001;-70
2022/10/03 10:08:27;;;;;;;;;;;;;;;11.67;46.63;96566.47;5060506;28;20154;-70
2022/10/03 10:10:53;;;;;;;;;;;;;;;11.41;47.46;96578.88;5024356;28;19983;-70
2022/10/03 10:13:27;;;;;;;;;;;;;;;11.41;47.01;96573.53;5046650;28;19985;-70
2022/10/03 10:16:08;;;;;;;;;;;;;;;10.52;49.06;96579.78;5051433;28;20531;-70
2022/10/03 10:18:49;;;;;;;;;;;;;;;10.10;49.27;96586.56;5049737;28;20441;-70
2022/10/03 10:21:23;;;;;;;;;;;;;;;9.44;50.62;96586.63;5049494;28;20094;-70
2022/10/03 10:24:07;;;;;;;;;;;;;;;9.45;51.71;96585.63;5042308;28;20037;-70
2022/10/03 10:26:41;;;;;;;;;;;;;;;9.79;50.05;96570.91;5054581;28;20003;-70
2022/10/03 10:29:07;;;;;;;;;;;;;;;10.13;48.93;96575.59;5058240;28;20096;-70
2022/10/03 10:31:51;;;;;;;;;;;;;;;10.46;49.19;96583.03;5048932;28;20095;-70
2022/10/03 10:34:20;;;;;;;;;;;;;;;10.82;48.51;96577.69;5051706;28;20003;-70
2022/10/03 10:36:51;;;;;;;;;;;;;;;11.06;45.46;96575.31;5055738;28;20083;-70
2022/10/03 10:39:35;;;;;;;;;;;;;;;11.20;45.40;96579.25;5053536;28;20420;-70
2022/10/03 10:42:13;;;;;;;;;;;;;;;11.42;42.29;96577.84;5061805;28;19965;-70
2022/10/03 10:44:50;;;;;;;;;;;;;;;11.85;43.19;96582.34;5036117;28;20524;-70
2022/10/03 10:47:22;;;;;;;;;;;;;;;11.45;44.22;96584.69;5048083;28;20056;-70
2022/10/03 10:49:55;;;;;;;;;;;;;;;11.41;44.84;96584.19;5053825;28;19961;-70
2022/10/03 10:52:39;;;;;;;;;;;;;;;11.79;43.51;96581.16;5059846;28;20490;-70
2022/10/03 10:55:07;;;;;;;;;;;;;;;11.46;42.27;96578.41;5050949;28;20362;-70
2022/10/03 10:57:53;;;;;;;;;;;;;;;11.52;40.65;96577.72;5053904;28;20019;-70
2022/10/03 11:00:31;;;;;;;;;;;;;;;11.89;41.16;96581.88;5032898;28;19995;-68
2022/10/03 11:03:07;;;;;;;;;;;;;;;12.45;39.94;96582.31;5056686;28;20573;-68
2022/10/03 11:05:35;;;;;;;;;;;;;;;12.24;40.77;96583.66;5031087;28;20044;-68
2022/10/03 11:08:19;;;;;;;;;;;;;;;12.52;41.40;96568.13;5053556;28;20019;-68
2022/10/03 11:11:00;;;;;;;;;;;;;;;12.56;40.00;96573.97;5064283;28;20356;-68
2022/10/03 11:13:31;;;;;;;;;;;;;;;12.49;39.19;96567.63;5055712;28;19988;-68
2022/10/03 11:16:17;;;;;;;;;;;;;;;12.91;40.81;96565.75;5051270;28;19989;-69
2022/10/03 11:18:51;;;;;;;;;;;;;;;13.54;38.35;96562.44;5020112;28;19981;-68
2022/10/03 11:21:20;;;;;;;;;;;;;;;13.53;38.54;96563.44;5035512;28;20015;-68
2022/10/03 11:24:04;;;;;;;;;;;;;;;12.75;41.44;96564.78;5055124;28;19989;-69
2022/10/03 11:26:46;;;;;;;;;;;;;;;13.04;37.68;96559.91;5053763;28;20400;-68
2022/10/03 11:29:23;;;;;;;;;;;;;;;13.54;37.63;96554.41;5029322;28;19993;-68
2022/10/03 11:31:54;;;;;;;;;;;;;;;13.79;38.01;96564.97;5051116;28;20079;-69
2022/10/03 11:34:29;;;;;;;;;;;;;;;14.17;35.29;96557.09;5051049;28;20365;-69
2022/10/03 11:37:14;;;;;;;;;;;;;;;14.92;35.47;96551.13;5032690;28;19989;-70
2022/10/03 11:39:44;;;;;;;;;;;;;;;14.95;35.94;96553.47;5047420;28;19987;-71
2022/10/03 11:42:31;;;;;;;;;;;;;;;15.11;33.97;96556.97;5048559;28;20564;-70
2022/10/03 11:44:56;;;;;;;;;;;;;;;15.16;33.95;96554.56;5057111;28;20008;-70
2022/10/03 11:47:31;;;;;;;;;;;;;;;14.00;35.95;96559.03;5049768;28;20337;-70
2022/10/03 11:50:05;;;;;;;;;;;;;;;14.39;34.69;96559.13;5047376;28;20094;-71
2022/10/03 11:52:34;;;;;;;;;;;;;;;14.49;35.72;96557.03;5027177;28;20003;-70
2022/10/03 11:55:06;;;;;;;;;;;;;;;14.23;36.79;96546.66;5033238;28;20377;-70
2022/10/03 11:57:33;;;;;;;;;;;;;;;13.91;36.18;96550.22;5048559;28;19989;-70
2022/10/03 12:00:05;;;;;;;;;;;;;;;13.85;36.09;96555.41;5054858;28;19989;-70
2022/10/03 12:02:34;;;;;;;;;;;;;;;13.73;35.66;96552.31;5047708;28;20072;-70
2022/10/03 12:04:59;;;;;;;;;;;;;;;14.26;35.78;96549.84;5048720;28;20184;-71
2022/10/03 12:10:23;;;;;;;;;;;;;;;14.94;35.20;96542.91;5035986;28;20423;-71
2022/10/03 12:12:51;;;;;;;;;;;;;;;14.89;35.87;96532.72;5032040;28;20469;-71
2022/10/03 12:15:16;;;;;;;;;;;;;;;15.60;32.91;96533.28;5033019;28;20054;-71
2022/10/03 12:17:42;;;;;;;;;;;;;;;15.67;32.75;96534.22;5059842;28;20122;-71
2022/10/03 12:20:17;;;;;;;;;;;;;;;15.15;34.80;96527.94;5033661;28;20576;-71
2022/10/03 12:22:54;;;;;;;;;;;;;;;14.68;35.19;96536.09;5046367;28;19963;-71
2022/10/03 12:25:20;;;;;;;;;;;;;;;14.12;36.03;96531.84;5045828;28;20548;-71
2022/10/03 12:27:56;;;;;;;;;;;;;;;13.48;36.35;96536.38;5048782;28;19996;-71
2022/10/03 12:30:21;;;;;;;;;;;;;;;13.76;36.66;96534.06;5033225;28;20423;-70
2022/10/03 12:32:50;;;;;;;;;;;;;;;13.85;36.49;96529.50;5053197;28;19989;-71
2022/10/03 12:35:18;;;;;;;;;;;;;;;13.88;35.00;96531.84;5035310;28;20401;-71
2022/10/03 12:37:44;;;;;;;;;;;;;;;14.06;34.74;96531.56;5053620;28;19966;-71
2022/10/03 12:40:15;;;;;;;;;;;;;;;13.93;35.41;96534.84;5054729;28;19992;-71
2022/10/03 12:43:00;;;;;;;;;;;;;;;14.61;34.67;96522.59;5054222;28;20461;-71
2022/10/03 12:45:27;;;;;;;;;;;;;;;14.22;36.12;96529.78;5055827;28;20624;-71
2022/10/03 12:48:06;;;;;;;;;;;;;;;14.53;34.57;96523.50;5033587;28;19993;-70
2022/10/03 12:50:37;;;;;;;;;;;;;;;15.04;34.76;96515.84;5034169;28;20006;-71
2022/10/03 12:53:15;;;;;;;;;;;;;;;14.95;33.65;96515.09;5051392;28;20007;-71
2022/10/03 12:56:09;;;;;;;;;;;;;;;14.51;35.25;96517.50;5051945;28;20411;-71
2022/10/03 12:58:34;;;;;;;;;;;;;;;14.65;34.97;96512.34;5033248;28;20398;-71
2022/10/03 13:01:00;;;;;;;;;;;;;;;13.94;35.05;96517.75;5054233;28;20091;-71
2022/10/03 13:03:28;;;;;;;;;;;;;;;13.66;35.41;96515.56;5054088;28;20503;-71
2022/10/03 13:06:12;;;;;;;;;;;;;;;13.67;35.86;96521.75;5052709;28;20467;-71
2022/10/03 13:08:56;;;;;;;;;;;;;;;13.82;36.21;96516.47;5055379;28;20612;-70
2022/10/03 13:11:24;;;;;;;;;;;;;;;12.01;40.98;96528.19;5052447;28;19965;-70
2022/10/03 13:14:12;;;;;;;;;;;;;;;12.44;40.37;96511.22;5053502;28;20397;-70
2022/10/03 13:16:40;;;;;;;;;;;;;;;12.51;38.92;96513.03;5035988;28;20266;-70
2022/10/03 13:19:08;;;;;;;;;;;;;;;13.07;38.30;96526.66;5032781;28;19981;-70
2022/10/03 13:21:43;;;;;;;;;;;;;;;13.74;37.64;96511.16;5055646;28;19995;-71
2022/10/03 13:24:10;;;;;;;;;;;;;;;14.26;37.01;96517.72;5054603;28;20119;-71
2022/10/03 13:27:02;;;;;;;;;;;;;;;14.54;34.70;96510.94;5053012;28;19973;-70
2022/10/03 13:29:33;;;;;;;;;;;;;;;14.64;35.76;96519.56;5018489;28;20032;-71
2022/10/03 13:32:01;;;;;;;;;;;;;;;14.58;35.63;96513.06;5035795;28;20039;-71
2022/10/03 13:34:27;;;;;;;;;;;;;;;14.76;34.71;96514.63;5055146;28;19973;-70
2022/10/03 13:36:54;;;;;;;;;;;;;;;13.90;35.97;96516.44;5036014;28;19984;-71
2022/10/03 13:39:22;;;;;;;;;;;;;;;13.87;36.40;96521.28;5037735;28;20416;-71
2022/10/03 13:41:59;;;;;;;;;;;;;;;13.27;37.08;96517.25;5041550;28;20063;-71
2022/10/03 13:44:27;;;;;;;;;;;;;;;13.42;37.82;96513.81;5056418;28;20001;-71
2022/10/03 13:46:54;;;;;;;;;;;;;;;13.17;37.81;96525.47;5053078;28;20396;-71